createdAt,value
2022-11-19T00:00:20.500Z,99250.44
2022-11-19T00:01:26.315Z,99256.50
2022-11-19T00:02:29.106Z,99255.44
2022-11-19T00:03:33.212Z,99250.63
2022-11-19T00:04:36.038Z,99251.47
2022-11-19T00:05:39.646Z,99248.09
2022-11-19T00:06:42.428Z,99244.72
2022-11-19T00:07:44.154Z,99245.81
2022-11-19T00:08:46.994Z,99241.97
2022-11-19T00:09:48.663Z,99242.84
2022-11-19T00:10:51.314Z,99241.56
2022-11-19T00:12:11.431Z,99253.13
2022-11-19T00:13:14.267Z,99240.94
2022-11-19T00:14:16.820Z,99246.19
2022-11-19T00:15:19.474Z,99238.59
2022-11-19T00:16:21.139Z,99244.91
2022-11-19T00:17:25.481Z,99253.13
2022-11-19T00:18:27.227Z,99247.84
2022-11-19T00:19:29.891Z,99246.19
2022-11-19T00:20:32.887Z,99252.47
2022-11-19T00:21:35.610Z,99248.69
2022-11-19T00:22:37.281Z,99248.69
2022-11-19T00:23:40.773Z,99247.63
2022-11-19T00:24:42.447Z,99250.16
2022-11-19T00:25:45.257Z,99251.00
2022-11-19T00:26:47.038Z,99251.63
2022-11-19T00:27:49.779Z,99253.50
2022-11-19T00:28:51.470Z,99251.81
2022-11-19T00:29:54.247Z,99250.16
2022-11-19T00:31:00.910Z,99249.53
2022-11-19T00:32:03.592Z,99253.13
2022-11-19T00:33:06.815Z,99249.75
2022-11-19T00:34:09.595Z,99249.75
2022-11-19T00:35:11.274Z,99257.13
2022-11-19T00:36:15.918Z,99245.34
2022-11-19T00:37:17.631Z,99250.56
2022-11-19T00:38:20.481Z,99254.78
2022-11-19T00:39:22.464Z,99251.00
2022-11-19T00:40:25.307Z,99250.78
2022-11-19T00:41:27.009Z,99251.63
2022-11-19T00:42:29.819Z,99248.69
2022-11-19T00:43:49.947Z,99243.22
2022-11-19T00:44:52.923Z,99253.31
2022-11-19T00:45:54.659Z,99251.41
2022-11-19T00:46:57.338Z,99247.84
2022-11-19T00:47:59.002Z,99253.31
2022-11-19T00:49:02.993Z,99255.84
2022-11-19T00:50:05.337Z,99253.31
2022-11-19T00:51:08.609Z,99250.38
2022-11-19T00:52:11.697Z,99255.59
2022-11-19T00:53:13.351Z,99252.03
2022-11-19T00:54:16.244Z,99250.38
2022-11-19T00:55:17.962Z,99252.25
2022-11-19T00:56:22.848Z,99247.84
2022-11-19T00:57:24.693Z,99253.09
2022-11-19T00:58:27.411Z,99249.28
2022-11-19T00:59:29.135Z,99246.53
2022-11-19T01:00:31.865Z,99251.81
2022-11-19T01:01:33.756Z,99249.91
2022-11-19T01:02:36.524Z,99249.06
2022-11-19T01:03:38.882Z,99257.50
2022-11-19T01:04:42.969Z,99253.09
2022-11-19T01:05:44.742Z,99256.03
2022-11-19T01:06:47.418Z,99253.75
2022-11-19T01:07:49.100Z,99256.28
2022-11-19T01:08:53.211Z,99256.69
2022-11-19T01:09:54.911Z,99258.41
2022-11-19T01:10:58.003Z,99252.13
2022-11-19T01:11:59.830Z,99260.53
2022-11-19T01:13:20.295Z,99257.59
2022-11-19T01:14:22.953Z,99258.47
2022-11-19T01:15:24.648Z,99257.19
2022-11-19T01:16:28.785Z,99263.09
2022-11-19T01:17:30.426Z,99257.22
2022-11-19T01:18:33.147Z,99259.31
2022-11-19T01:19:36.005Z,99259.75
2022-11-19T01:20:39.076Z,99259.97
2022-11-19T01:21:41.898Z,99258.06
2022-11-19T01:22:43.640Z,99263.13
2022-11-19T01:23:47.247Z,99261.63
2022-11-19T01:24:48.967Z,99261.03
2022-11-19T01:25:51.670Z,99274.91
2022-11-19T01:26:54.360Z,99270.72
2022-11-19T01:27:57.740Z,99265.66
2022-11-19T01:29:00.429Z,99263.13
2022-11-19T01:30:02.168Z,99265.84
2022-11-19T01:31:08.296Z,99273.22
2022-11-19T01:32:10.043Z,99270.69
2022-11-19T01:33:13.122Z,99269.00
2022-11-19T01:34:15.815Z,99273.88
2022-11-19T01:35:17.659Z,99275.75
2022-11-19T01:36:22.990Z,99270.28
2022-11-19T01:37:24.871Z,99279.53
2022-11-19T01:38:27.585Z,99273.41
2022-11-19T01:39:29.307Z,99280.78
2022-11-19T01:40:32.207Z,99277.84
2022-11-19T01:41:34.988Z,99282.91
2022-11-19T01:42:53.866Z,99285.81
2022-11-19T01:43:59.089Z,99281.41
2022-11-19T01:45:05.236Z,99287.94
2022-11-19T01:46:08.357Z,99281.00
2022-11-19T01:47:10.127Z,99286.47
2022-11-19T01:48:16.680Z,99286.66
2022-11-19T01:49:21.527Z,99289.63
2022-11-19T01:50:24.359Z,99290.84
2022-11-19T01:51:30.684Z,99284.97
2022-11-19T01:52:32.500Z,99298.22
2022-11-19T01:53:36.936Z,99288.78
2022-11-19T01:54:41.630Z,99292.75
2022-11-19T01:55:45.267Z,99292.53
2022-11-19T01:56:47.211Z,99296.06
2022-11-19T01:57:54.892Z,99296.91
2022-11-19T01:58:59.600Z,99291.00
2022-11-19T02:00:02.435Z,99290.53
2022-11-19T02:01:04.483Z,99290.75
2022-11-19T02:02:07.362Z,99289.44
2022-11-19T02:03:09.950Z,99291.56
2022-11-19T02:04:13.285Z,99297.19
2022-11-19T02:05:15.631Z,99295.50
2022-11-19T02:06:18.604Z,99291.94
2022-11-19T02:07:26.208Z,99285.03
2022-11-19T02:08:38.135Z,99295.28
2022-11-19T02:09:40.019Z,99295.50
2022-11-19T02:10:49.673Z,99289.41
2022-11-19T02:12:03.989Z,99286.88
2022-11-19T02:13:12.056Z,99292.31
2022-11-19T02:14:37.093Z,99290.44
2022-11-19T02:15:43.748Z,99292.31
2022-11-19T02:16:52.761Z,99291.72
2022-11-19T02:18:03.997Z,99294.84
2022-11-19T02:19:18.131Z,99300.88
2022-11-19T02:20:32.776Z,99300.03
2022-11-19T02:21:39.225Z,99308.63
2022-11-19T02:23:06.379Z,99298.94
2022-11-19T02:24:29.335Z,99304.16
2022-11-19T02:25:43.507Z,99301.00
2022-11-19T02:27:21.294Z,99299.69
2022-11-19T02:28:30.374Z,99301.75
2022-11-19T02:30:01.283Z,99298.78
2022-11-19T02:31:08.336Z,99303.56
2022-11-19T02:32:14.819Z,99302.28
2022-11-19T02:33:23.130Z,99298.09
2022-11-19T02:34:27.609Z,99303.75
2022-11-19T02:35:43.758Z,99303.91
2022-11-19T02:36:48.768Z,99305.13
2022-11-19T02:37:57.018Z,99306.16
2022-11-19T02:39:02.803Z,99303.66
2022-11-19T02:40:10.409Z,99301.97
2022-11-19T02:41:36.836Z,99301.78
2022-11-19T02:42:42.976Z,99304.69
2022-11-19T02:43:47.028Z,99297.38
2022-11-19T02:45:00.805Z,99298.22
2022-11-19T02:46:08.189Z,99298.22
2022-11-19T02:47:13.827Z,99301.13
2022-11-19T02:48:19.446Z,99296.94
2022-11-19T02:49:23.656Z,99301.72
2022-11-19T02:50:29.227Z,99312.00
2022-11-19T02:51:30.926Z,99306.53
2022-11-19T02:52:33.846Z,99300.25
2022-11-19T02:53:35.753Z,99303.34
2022-11-19T02:54:38.486Z,99302.91
2022-11-19T02:55:40.686Z,99300.19
2022-11-19T02:56:49.813Z,99304.97
2022-11-19T02:57:54.330Z,99310.66
2022-11-19T02:59:14.446Z,99302.47
2022-11-19T03:00:35.816Z,99304.34
2022-11-19T03:02:00.284Z,99311.25
2022-11-19T03:03:23.115Z,99305.13
2022-11-19T03:04:32.971Z,99316.03
2022-11-19T03:05:38.406Z,99315.56
2022-11-19T03:06:41.522Z,99322.88
2022-11-19T03:07:44.311Z,99320.16
2022-11-19T03:08:46.740Z,99314.91
2022-11-19T03:09:56.014Z,99313.03
2022-11-19T03:11:05.986Z,99321.88
2022-11-19T03:12:19.076Z,99317.44
2022-11-19T03:13:43.271Z,99324.59
2022-11-19T03:15:08.045Z,99323.72
2022-11-19T03:16:32.410Z,99326.63
2022-11-19T03:17:48.014Z,99330.78
2022-11-19T03:18:51.629Z,99331.38
2022-11-19T03:19:58.359Z,99344.75
2022-11-19T03:21:04.037Z,99336.31
2022-11-19T03:22:11.079Z,99337.94
2022-11-19T03:23:17.945Z,99329.75
2022-11-19T03:24:23.263Z,99327.03
2022-11-19T03:25:27.488Z,99326.19
2022-11-19T03:26:33.739Z,99329.75
2022-11-19T03:27:37.333Z,99330.41
2022-11-19T03:28:40.031Z,99334.00
2022-11-19T03:29:43.382Z,99328.72
2022-11-19T03:30:47.277Z,99328.06
2022-11-19T03:31:53.058Z,99332.03
2022-11-19T03:33:01.736Z,99335.16
2022-11-19T03:34:06.182Z,99337.88
2022-11-19T03:35:12.207Z,99337.22
2022-11-19T03:36:16.330Z,99339.88
2022-11-19T03:37:20.321Z,99337.72
2022-11-19T03:38:27.225Z,99338.13
2022-11-19T03:39:30.198Z,99337.47
2022-11-19T03:40:32.397Z,99332.00
2022-11-19T03:41:36.149Z,99333.72
2022-11-19T03:42:39.545Z,99337.28
2022-11-19T03:43:42.896Z,99334.16
2022-11-19T03:44:47.539Z,99328.94
2022-11-19T03:45:52.587Z,99347.31
2022-11-19T03:46:57.645Z,99351.06
2022-11-19T03:48:02.267Z,99349.59
2022-11-19T03:49:05.266Z,99359.44
2022-11-19T03:50:13.510Z,99363.59
2022-11-19T03:51:17.851Z,99357.03
2022-11-19T03:52:22.042Z,99361.34
2022-11-19T03:53:23.814Z,99364.38
2022-11-19T03:54:26.597Z,99360.34
2022-11-19T03:55:31.803Z,99362.59
2022-11-19T03:56:36.677Z,99360.06
2022-11-19T03:57:38.359Z,99357.53
2022-11-19T03:58:42.266Z,99360.25
2022-11-19T03:59:44.206Z,99357.72
2022-11-19T04:00:46.852Z,99358.56
2022-11-19T04:01:50.410Z,99353.13
2022-11-19T04:02:53.162Z,99361.94
2022-11-19T04:04:14.560Z,99368.25
2022-11-19T04:05:17.405Z,99362.59
2022-11-19T04:06:19.211Z,99367.38
2022-11-19T04:07:23.371Z,99372.81
2022-11-19T04:08:25.394Z,99375.72
2022-11-19T04:09:28.337Z,99379.97
2022-11-19T04:10:29.978Z,99383.53
2022-11-19T04:11:32.656Z,99374.03
2022-11-19T04:12:35.400Z,99375.09
2022-11-19T04:13:37.030Z,99380.72
2022-11-19T04:14:39.779Z,99375.09
2022-11-19T04:15:42.503Z,99378.63
2022-11-19T04:16:44.229Z,99371.13
2022-11-19T04:17:47.212Z,99366.94
2022-11-19T04:18:48.995Z,99371.13
2022-11-19T04:19:53.048Z,99367.38
2022-11-19T04:20:54.724Z,99366.53
2022-11-19T04:22:00.116Z,99370.97
2022-11-19T04:23:02.139Z,99363.81
2022-11-19T04:24:05.314Z,99365.50
2022-11-19T04:25:07.769Z,99359.88
2022-11-19T04:26:10.505Z,99362.59
2022-11-19T04:27:12.194Z,99356.13
2022-11-19T04:28:14.872Z,99361.56
2022-11-19T04:29:17.015Z,99355.09
2022-11-19T04:30:20.227Z,99352.19
2022-11-19T04:31:21.979Z,99355.53
2022-11-19T04:32:24.657Z,99355.75
2022-11-19T04:33:26.429Z,99354.06
2022-11-19T04:34:29.070Z,99355.09
2022-11-19T04:35:32.147Z,99353.22
2022-11-19T04:36:34.827Z,99354.44
2022-11-19T04:37:36.855Z,99359.88
2022-11-19T04:38:39.618Z,99360.94
2022-11-19T04:39:41.336Z,99356.50
2022-11-19T04:40:44.050Z,99360.44
2022-11-19T04:41:45.709Z,99364.00
2022-11-19T04:42:48.365Z,99359.59
2022-11-19T04:43:50.249Z,99363.16
2022-11-19T04:44:53.052Z,99369.44
2022-11-19T04:45:54.771Z,99366.94
2022-11-19T04:46:57.469Z,99374.25
2022-11-19T04:47:59.226Z,99373.41
2022-11-19T04:49:01.902Z,99373.19
2022-11-19T04:50:04.754Z,99375.09
2022-11-19T04:51:07.811Z,99380.31
2022-11-19T04:52:10.568Z,99379.69
2022-11-19T04:53:12.357Z,99381.72
2022-11-19T04:54:17.388Z,99385.47
2022-11-19T04:55:19.191Z,99384.84
2022-11-19T04:56:21.871Z,99394.88
2022-11-19T04:57:23.654Z,99386.25
2022-11-19T04:58:26.406Z,99393.34
2022-11-19T04:59:28.418Z,99385.19
2022-11-19T05:00:31.346Z,99389.78
2022-11-19T05:01:33.491Z,99392.72
2022-11-19T05:02:36.235Z,99385.59
2022-11-19T05:03:37.915Z,99395.63
2022-11-19T05:04:40.608Z,99387.63
2022-11-19T05:05:42.499Z,99387.63
2022-11-19T05:06:46.607Z,99388.50
2022-11-19T05:07:48.351Z,99385.13
2022-11-19T05:08:51.135Z,99385.03
2022-11-19T05:09:52.999Z,99390.47
2022-11-19T05:10:55.664Z,99388.97
2022-11-19T05:11:57.378Z,99392.91
2022-11-19T05:13:00.090Z,99391.69
2022-11-19T05:14:02.344Z,99392.53
2022-11-19T05:15:05.753Z,99382.69
2022-11-19T05:16:07.759Z,99378.69
2022-11-19T05:17:10.630Z,99378.47
2022-11-19T05:18:12.535Z,99376.97
2022-11-19T05:19:15.364Z,99378.84
2022-11-19T05:20:17.166Z,99379.53
2022-11-19T05:21:19.857Z,99373.25
2022-11-19T05:22:23.081Z,99371.38
2022-11-19T05:23:26.503Z,99372.19
2022-11-19T05:24:28.303Z,99381.19
2022-11-19T05:25:31.058Z,99373.88
2022-11-19T05:26:33.826Z,99380.34
2022-11-19T05:27:35.582Z,99381.19
2022-11-19T05:28:39.658Z,99378.00
2022-11-19T05:29:41.888Z,99377.91
2022-11-19T05:30:44.614Z,99381.84
2022-11-19T05:31:46.432Z,99381.00
2022-11-19T05:32:49.215Z,99381.84
2022-11-19T05:33:50.883Z,99382.03
2022-11-19T05:34:53.766Z,99381.56
2022-11-19T05:35:55.506Z,99385.31
2022-11-19T05:36:58.323Z,99390.94
2022-11-19T05:38:02.435Z,99387.00
2022-11-19T05:39:04.401Z,99390.09
2022-11-19T05:40:08.487Z,99381.09
2022-11-19T05:41:10.309Z,99396.72
2022-11-19T05:42:12.963Z,99389.44
2022-11-19T05:43:14.693Z,99396.72
2022-11-19T05:44:17.888Z,99393.00
2022-11-19T05:45:19.849Z,99394.69
2022-11-19T05:46:22.592Z,99392.59
2022-11-19T05:47:24.318Z,99391.75
2022-11-19T05:48:27.042Z,99386.31
2022-11-19T05:49:29.060Z,99392.81
2022-11-19T05:50:31.851Z,99393.84
2022-11-19T05:51:33.499Z,99399.09
2022-11-19T05:52:36.206Z,99402.16
2022-11-19T05:53:39.309Z,99401.69
2022-11-19T05:54:42.098Z,99401.69
2022-11-19T05:55:43.798Z,99401.03
2022-11-19T05:56:46.427Z,99400.19
2022-11-19T05:57:48.225Z,99410.22
2022-11-19T05:58:50.974Z,99406.66
2022-11-19T05:59:52.718Z,99402.44
2022-11-19T06:00:56.604Z,99403.09
2022-11-19T06:01:58.357Z,99405.81
2022-11-19T06:03:01.200Z,99402.91
2022-11-19T06:04:02.892Z,99412.94
2022-11-19T06:05:06.481Z,99408.34
2022-11-19T06:06:11.055Z,99409.84
2022-11-19T06:07:13.871Z,99409.19
2022-11-19T06:08:15.575Z,99415.66
2022-11-19T06:09:20.095Z,99416.47
2022-11-19T06:10:21.919Z,99422.28
2022-11-19T06:11:42.047Z,99414.53
2022-11-19T06:12:46.002Z,99424.72
2022-11-19T06:13:48.006Z,99424.72
2022-11-19T06:14:50.685Z,99419.97
2022-11-19T06:15:52.998Z,99419.13
2022-11-19T06:16:57.267Z,99422.00
2022-11-19T06:18:00.034Z,99422.84
2022-11-19T06:19:01.832Z,99427.44
2022-11-19T06:20:04.861Z,99424.06
2022-11-19T06:21:11.921Z,99427.44
2022-11-19T06:22:14.899Z,99431.00
2022-11-19T06:23:16.630Z,99428.84
2022-11-19T06:24:21.230Z,99438.84
2022-11-19T06:25:22.994Z,99432.56
2022-11-19T06:26:26.559Z,99431.56
2022-11-19T06:27:28.428Z,99440.56
2022-11-19T06:28:31.198Z,99442.59
2022-11-19T06:29:33.911Z,99443.44
2022-11-19T06:30:35.614Z,99441.56
2022-11-19T06:31:38.310Z,99440.72
2022-11-19T06:32:40.985Z,99442.25
2022-11-19T06:33:42.708Z,99435.75
2022-11-19T06:34:45.391Z,99433.72
2022-11-19T06:35:49.026Z,99430.81
2022-11-19T06:36:51.710Z,99436.44
2022-11-19T06:37:53.458Z,99431.84
2022-11-19T06:38:56.141Z,99432.69
2022-11-19T06:39:59.218Z,99431.00
2022-11-19T06:41:02.070Z,99432.69
2022-11-19T06:42:18.980Z,99436.44
2022-11-19T06:43:21.627Z,99445.44
2022-11-19T06:44:23.359Z,99434.56
2022-11-19T06:45:26.481Z,99445.25
2022-11-19T06:46:28.262Z,99437.91
2022-11-19T06:47:31.397Z,99438.78
2022-11-19T06:48:33.107Z,99450.69
2022-11-19T06:49:35.802Z,99449.00
2022-11-19T06:50:37.446Z,99451.88
2022-11-19T06:51:40.217Z,99445.59
2022-11-19T06:52:41.893Z,99452.91
2022-11-19T06:53:44.650Z,99456.00
2022-11-19T06:54:47.379Z,99458.53
2022-11-19T06:55:56.116Z,99460.13
2022-11-19T06:56:58.968Z,99465.72
2022-11-19T06:58:02.313Z,99461.50
2022-11-19T06:59:04.964Z,99470.22
2022-11-19T07:00:07.768Z,99470.38
2022-11-19T07:01:10.449Z,99473.28
2022-11-19T07:02:12.487Z,99469.06
2022-11-19T07:03:15.833Z,99463.78
2022-11-19T07:04:17.669Z,99470.06
2022-11-19T07:05:20.431Z,99468.22
2022-11-19T07:06:22.097Z,99460.06
2022-11-19T07:07:24.813Z,99461.94
2022-11-19T07:08:26.552Z,99456.66
2022-11-19T07:09:29.216Z,99455.66
2022-11-19T07:10:31.799Z,99464.47
2022-11-19T07:11:35.834Z,99465.50
2022-11-19T07:12:37.651Z,99469.22
2022-11-19T07:13:54.228Z,99464.66
2022-11-19T07:15:02.637Z,99475.34
2022-11-19T07:16:06.164Z,99463.78
2022-11-19T07:17:08.920Z,99470.63
2022-11-19T07:18:10.839Z,99471.66
2022-11-19T07:19:14.682Z,99471.13
2022-11-19T07:20:17.137Z,99463.84
2022-11-19T07:21:19.843Z,99465.88
2022-11-19T07:22:22.471Z,99463.53
2022-11-19T07:23:24.202Z,99466.91
2022-11-19T07:24:26.925Z,99468.59
2022-11-19T07:25:28.948Z,99470.28
2022-11-19T07:26:32.409Z,99475.03
2022-11-19T07:27:35.438Z,99468.97
2022-11-19T07:28:38.112Z,99472.31
2022-11-19T07:29:40.032Z,99474.41
2022-11-19T07:30:42.742Z,99476.25
2022-11-19T07:31:46.838Z,99479.81
2022-11-19T07:32:48.542Z,99479.44
2022-11-19T07:33:51.414Z,99478.44
2022-11-19T07:34:54.062Z,99477.41
2022-11-19T07:35:55.746Z,99477.41
2022-11-19T07:36:58.550Z,99482.50
2022-11-19T07:38:00.351Z,99479.63
2022-11-19T07:39:03.335Z,99469.59
2022-11-19T07:40:05.810Z,99478.94
2022-11-19T07:41:28.573Z,99478.94
2022-11-19T07:42:48.647Z,99485.56
2022-11-19T07:43:51.709Z,99490.81
2022-11-19T07:44:55.047Z,99493.69
2022-11-19T07:45:56.891Z,99484.72
2022-11-19T07:46:59.550Z,99491.16
2022-11-19T07:48:01.255Z,99494.09
2022-11-19T07:49:04.185Z,99501.22
2022-11-19T07:50:06.847Z,99501.06
2022-11-19T07:51:09.563Z,99507.50
2022-11-19T07:52:12.193Z,99507.38
2022-11-19T07:53:13.871Z,99509.44
2022-11-19T07:54:16.680Z,99511.66
2022-11-19T07:55:18.715Z,99509.13
2022-11-19T07:56:21.593Z,99508.28
2022-11-19T07:57:28.720Z,99512.88
2022-11-19T07:58:32.993Z,99515.38
2022-11-19T07:59:37.086Z,99523.50
2022-11-19T08:00:38.786Z,99523.50
2022-11-19T08:01:41.539Z,99521.00
2022-11-19T08:02:43.217Z,99512.88
2022-11-19T08:03:47.799Z,99515.75
2022-11-19T08:04:51.262Z,99510.69
2022-11-19T08:05:53.978Z,99518.63
2022-11-19T08:06:55.861Z,99514.25
2022-11-19T08:07:58.778Z,99512.19
2022-11-19T08:09:02.570Z,99508.44
2022-11-19T08:10:06.921Z,99506.41
2022-11-19T08:11:11.150Z,99510.78
2022-11-19T08:12:13.853Z,99506.22
2022-11-19T08:13:15.680Z,99516.22
2022-11-19T08:14:18.619Z,99507.44
2022-11-19T08:15:21.738Z,99518.94
2022-11-19T08:16:42.130Z,99510.16
2022-11-19T08:18:02.578Z,99517.44
2022-11-19T08:19:07.702Z,99523.72
2022-11-19T08:20:10.178Z,99526.06
2022-11-19T08:21:13.116Z,99525.03
2022-11-19T08:22:14.965Z,99522.34
2022-11-19T08:23:17.666Z,99526.75
2022-11-19T08:24:20.727Z,99529.63
2022-11-19T08:25:23.663Z,99520.09
2022-11-19T08:26:26.358Z,99527.22
2022-11-19T08:27:29.048Z,99527.06
2022-11-19T08:28:31.004Z,99524.13
2022-11-19T08:29:33.775Z,99526.31
2022-11-19T08:30:37.150Z,99532.44
2022-11-19T08:31:39.891Z,99535.63
2022-11-19T08:32:42.530Z,99533.75
2022-11-19T08:33:44.486Z,99531.72
2022-11-19T08:34:47.211Z,99532.72
2022-11-19T08:35:49.047Z,99535.44
2022-11-19T08:36:51.801Z,99534.44
2022-11-19T08:37:53.578Z,99542.25
2022-11-19T08:38:58.218Z,99536.44
2022-11-19T08:40:00.887Z,99536.94
2022-11-19T08:41:20.987Z,99532.38
2022-11-19T08:42:41.200Z,99540.31
2022-11-19T08:43:43.885Z,99536.41
2022-11-19T08:44:45.550Z,99538.91
2022-11-19T08:45:54.161Z,99543.69
2022-11-19T08:46:58.333Z,99546.25
2022-11-19T08:48:02.656Z,99545.88
2022-11-19T08:49:04.878Z,99543.69
2022-11-19T08:50:08.051Z,99548.97
2022-11-19T08:51:10.487Z,99550.63
2022-11-19T08:52:14.496Z,99545.19
2022-11-19T08:53:17.340Z,99556.06
2022-11-19T08:54:19.520Z,99559.47
2022-11-19T08:55:22.647Z,99551.31
2022-11-19T08:56:24.382Z,99558.25
2022-11-19T08:57:27.269Z,99564.72
2022-11-19T08:58:30.098Z,99563.19
2022-11-19T08:59:31.831Z,99566.59
2022-11-19T09:00:37.025Z,99574.06
2022-11-19T09:01:40.403Z,99563.38
2022-11-19T09:02:43.096Z,99566.75
2022-11-19T09:03:45.097Z,99571.34
2022-11-19T09:04:47.747Z,99568.63
2022-11-19T09:05:50.443Z,99567.78
2022-11-19T09:06:53.192Z,99563.38
2022-11-19T09:07:55.985Z,99576.59
2022-11-19T09:08:59.032Z,99571.34
2022-11-19T09:10:00.713Z,99568.28
2022-11-19T09:11:07.259Z,99573.34
2022-11-19T09:12:10.566Z,99566.38
2022-11-19T09:13:13.360Z,99575.38
2022-11-19T09:14:16.051Z,99570.47
2022-11-19T09:15:18.174Z,99570.25
2022-11-19T09:16:21.116Z,99572.81
2022-11-19T09:17:25.279Z,99578.72
2022-11-19T09:18:28.080Z,99580.41
2022-11-19T09:19:30.735Z,99575.66
2022-11-19T09:20:33.422Z,99575.44
2022-11-19T09:21:38.846Z,99572.94
2022-11-19T09:22:41.759Z,99569.16
2022-11-19T09:23:43.465Z,99572.72
2022-11-19T09:24:46.195Z,99573.03
2022-11-19T09:25:55.428Z,99570.16
2022-11-19T09:27:02.041Z,99570.78
2022-11-19T09:28:04.304Z,99576.91
2022-11-19T09:29:07.190Z,99584.03
2022-11-19T09:30:10.659Z,99577.59
2022-11-19T09:31:14.654Z,99583.03
2022-11-19T09:32:22.452Z,99586.75
2022-11-19T09:33:30.708Z,99591.19
2022-11-19T09:34:35.054Z,99591.50
2022-11-19T09:35:36.684Z,99596.09
2022-11-19T09:36:39.547Z,99606.78
2022-11-19T09:37:41.268Z,99605.31
2022-11-19T09:38:44.196Z,99603.59
2022-11-19T09:39:45.921Z,99604.47
2022-11-19T09:40:52.729Z,99607.16
2022-11-19T09:41:59.554Z,99610.06
2022-11-19T09:43:08.446Z,99613.63
2022-11-19T09:44:21.877Z,99609.22
2022-11-19T09:45:30.507Z,99616.50
2022-11-19T09:46:39.583Z,99614.00
2022-11-19T09:47:55.730Z,99614.00
2022-11-19T09:49:02.131Z,99616.72
2022-11-19T09:50:13.405Z,99617.53
2022-11-19T09:51:18.599Z,99616.34
2022-11-19T09:52:21.799Z,99613.63
2022-11-19T09:53:24.965Z,99609.03
2022-11-19T09:54:26.940Z,99606.97
2022-11-19T09:55:34.310Z,99609.50
2022-11-19T09:56:40.521Z,99610.38
2022-11-19T09:57:49.081Z,99611.22
2022-11-19T09:58:51.859Z,99612.72
2022-11-19T09:59:55.699Z,99613.38
2022-11-19T10:00:59.528Z,99620.31
2022-11-19T10:02:01.324Z,99605.06
2022-11-19T10:03:13.472Z,99621.00
2022-11-19T10:04:18.848Z,99613.00
2022-11-19T10:05:28.963Z,99615.09
2022-11-19T10:06:36.958Z,99621.72
2022-11-19T10:07:44.237Z,99629.22
2022-11-19T10:08:55.822Z,99627.84
2022-11-19T10:10:12.109Z,99627.59
2022-11-19T10:11:32.265Z,99624.56
2022-11-19T10:12:53.984Z,99619.66
2022-11-19T10:14:02.860Z,99624.59
2022-11-19T10:15:16.657Z,99617.44
2022-11-19T10:16:30.491Z,99605.25
2022-11-19T10:17:42.817Z,99611.06
2022-11-19T10:18:50.999Z,99605.78
2022-11-19T10:20:07.749Z,99603.94
2022-11-19T10:21:14.318Z,99600.19
2022-11-19T10:22:21.961Z,99602.38
2022-11-19T10:23:27.766Z,99609.31
2022-11-19T10:24:35.889Z,99605.56
2022-11-19T10:25:40.702Z,99607.94
2022-11-19T10:26:43.474Z,99615.03
2022-11-19T10:27:47.986Z,99605.72
2022-11-19T10:28:56.201Z,99606.56
2022-11-19T10:30:00.462Z,99600.09
2022-11-19T10:31:08.176Z,99606.19
2022-11-19T10:32:25.398Z,99612.31
2022-11-19T10:33:31.114Z,99608.38
2022-11-19T10:34:36.506Z,99611.94
2022-11-19T10:35:42.164Z,99613.25
2022-11-19T10:36:47.332Z,99610.19
2022-11-19T10:37:54.319Z,99610.00
2022-11-19T10:39:04.006Z,99603.38
2022-11-19T10:40:11.853Z,99601.28
2022-11-19T10:41:18.203Z,99597.84
2022-11-19T10:42:23.382Z,99611.91
2022-11-19T10:43:29.548Z,99599.69
2022-11-19T10:44:38.260Z,99598.63
2022-11-19T10:45:41.193Z,99602.66
2022-11-19T10:46:43.524Z,99604.19
2022-11-19T10:47:50.376Z,99607.59
2022-11-19T10:48:54.603Z,99615.91
2022-11-19T10:49:57.679Z,99613.19
2022-11-19T10:51:02.075Z,99611.34
2022-11-19T10:52:03.900Z,99622.22
2022-11-19T10:53:08.845Z,99618.63
2022-11-19T10:54:21.664Z,99622.56
2022-11-19T10:55:27.455Z,99622.06
2022-11-19T10:56:35.685Z,99618.88
2022-11-19T10:57:38.398Z,99620.94
2022-11-19T10:58:45.039Z,99620.28
2022-11-19T10:59:48.336Z,99612.13
2022-11-19T11:00:51.874Z,99617.25
2022-11-19T11:01:56.779Z,99615.09
2022-11-19T11:03:03.030Z,99617.97
2022-11-19T11:04:07.532Z,99618.81
2022-11-19T11:05:12.246Z,99610.84
2022-11-19T11:06:15.508Z,99614.56
2022-11-19T11:07:18.213Z,99613.75
2022-11-19T11:08:19.944Z,99611.84
2022-11-19T11:09:30.509Z,99617.66
2022-11-19T11:10:43.034Z,99616.16
2022-11-19T11:12:05.012Z,99616.34
2022-11-19T11:13:36.617Z,99611.06
2022-11-19T11:14:54.447Z,99614.16
2022-11-19T11:15:57.550Z,99618.28
2022-11-19T11:16:59.500Z,99614.03
2022-11-19T11:18:03.658Z,99625.09
2022-11-19T11:19:13.727Z,99615.41
2022-11-19T11:20:24.303Z,99609.97
2022-11-19T11:21:34.338Z,99604.38
2022-11-19T11:22:37.565Z,99611.69
2022-11-19T11:23:48.474Z,99608.13
2022-11-19T11:24:51.356Z,99603.22
2022-11-19T11:25:56.638Z,99609.31
2022-11-19T11:27:20.330Z,99607.81
2022-11-19T11:28:23.031Z,99597.97
2022-11-19T11:29:27.591Z,99597.63
2022-11-19T11:30:29.335Z,99603.22
2022-11-19T11:31:34.977Z,99608.28
2022-11-19T11:32:37.829Z,99608.28
2022-11-19T11:33:41.460Z,99606.06
2022-11-19T11:34:44.351Z,99613.56
2022-11-19T11:35:46.181Z,99621.16
2022-11-19T11:36:50.261Z,99606.56
2022-11-19T11:37:52.102Z,99618.91
2022-11-19T11:38:59.712Z,99624.19
2022-11-19T11:40:02.601Z,99623.34
2022-11-19T11:41:53.428Z,99624.88
2022-11-19T11:42:29.821Z,99618.59
2022-11-19T11:43:32.167Z,99623.66
2022-11-19T11:44:36.690Z,99618.38
2022-11-19T11:45:38.858Z,99627.38
2022-11-19T11:46:43.950Z,99622.97
2022-11-19T11:47:45.702Z,99613.16
2022-11-19T11:48:49.381Z,99621.09
2022-11-19T11:49:59.002Z,99617.53
2022-11-19T11:51:00.714Z,99617.53
2022-11-19T11:52:16.630Z,99622.78
2022-11-19T11:53:29.864Z,99621.47
2022-11-19T11:54:31.778Z,99624.88
2022-11-19T11:55:34.631Z,99623.34
2022-11-19T11:56:36.318Z,99625.88
2022-11-19T11:57:52.262Z,99618.75
2022-11-19T11:58:53.955Z,99618.91
2022-11-19T11:59:56.783Z,99618.06
2022-11-19T12:01:15.865Z,99616.56
2022-11-19T12:02:27.105Z,99622.38
2022-11-19T12:03:30.665Z,99617.75
2022-11-19T12:04:33.424Z,99614.41
2022-11-19T12:05:45.797Z,99618.13
2022-11-19T12:06:55.578Z,99617.28
2022-11-19T12:08:16.063Z,99619.16
2022-11-19T12:09:24.293Z,99614.41
2022-11-19T12:10:29.913Z,99621.38
2022-11-19T12:11:49.722Z,99605.78
2022-11-19T12:13:03.226Z,99615.09
2022-11-19T12:14:10.931Z,99609.50
2022-11-19T12:15:17.209Z,99620.38
2022-11-19T12:16:27.702Z,99626.66
2022-11-19T12:17:41.120Z,99625.81
2022-11-19T12:18:49.450Z,99622.88
2022-11-19T12:20:22.572Z,99609.31
2022-11-19T12:21:32.983Z,99611.84
2022-11-19T12:22:44.073Z,99608.13
2022-11-19T12:23:57.637Z,99600.81
2022-11-19T12:25:21.580Z,99609.81
2022-11-19T12:26:31.661Z,99602.69
2022-11-19T12:27:38.643Z,99606.25
2022-11-19T12:28:58.256Z,99598.44
2022-11-19T12:30:06.109Z,99593.22
2022-11-19T12:31:20.455Z,99606.59
2022-11-19T12:32:36.864Z,99613.72
2022-11-19T12:33:47.267Z,99616.44
2022-11-19T12:35:04.139Z,99628.31
2022-11-19T12:36:13.116Z,99617.44
2022-11-19T12:37:27.809Z,99624.78
2022-11-19T12:38:37.388Z,99620.16
2022-11-19T12:39:47.645Z,99617.44
2022-11-19T12:40:56.392Z,99613.56
2022-11-19T12:42:23.327Z,99616.94
2022-11-19T12:43:42.432Z,99624.25
2022-11-19T12:44:49.605Z,99614.88
2022-11-19T12:45:58.830Z,99613.69
2022-11-19T12:47:06.865Z,99617.22